Moneymore, United Kingdom
Current Conditions -  °F | °C
As of 6:50 AM on Wednesday 28 Jan 2015 (Local Time) from EGAA Reporting Station
Light Rain Light Rain  
Wind Chill: -1°   Ceiling: 4600
Heat Index:   Visibility: 6mi
Dew Point:   Wind: 20mph
Humidity: 87%   Direction: 270°W
Pressure: 29.41"   Gusts: NA
Location:  54.69°N, 6.67°W
Report Text: EGAA 280650Z 27017KT 9999 -RA SCT022 BKN046 04/02 Q0996
Loading
Personal Weather Stations






























Interactive Weather Map New forecast layout! Learn more

10-Day Weather Forecast

Advertisements
Track Severe Weather on mobile